sensor_id;sensor_type;location;lat;lon;timestamp;temperature;humidity
56240;DHT22;42154;51.992;5.896;2023-04-24T00:00:05;11.00;99.90
56240;DHT22;42154;51.992;5.896;2023-04-24T00:02:32;11.00;99.90
56240;DHT22;42154;51.992;5.896;2023-04-24T00:04:58;10.90;99.90
56240;DHT22;42154;51.992;5.896;2023-04-24T00:07:29;11.00;99.90
56240;DHT22;42154;51.992;5.896;2023-04-24T00:09:54;11.00;99.90
56240;DHT22;42154;51.992;5.896;2023-04-24T00:12:20;11.00;99.90
56240;DHT22;42154;51.992;5.896;2023-04-24T00:14:46;11.00;99.90
56240;DHT22;42154;51.992;5.896;2023-04-24T00:17:12;11.00;99.90
56240;DHT22;42154;51.992;5.896;2023-04-24T00:19:38;11.00;99.90
56240;DHT22;42154;51.992;5.896;2023-04-24T00:22:04;11.00;99.90
56240;DHT22;42154;51.992;5.896;2023-04-24T00:24:29;11.00;99.90
56240;DHT22;42154;51.992;5.896;2023-04-24T00:26:55;11.00;99.90
56240;DHT22;42154;51.992;5.896;2023-04-24T00:29:21;11.00;99.90
56240;DHT22;42154;51.992;5.896;2023-04-24T00:31:47;11.00;99.90
56240;DHT22;42154;51.992;5.896;2023-04-24T00:34:13;11.00;99.90
56240;DHT22;42154;51.992;5.896;2023-04-24T00:36:39;10.90;99.90
56240;DHT22;42154;51.992;5.896;2023-04-24T00:39:05;10.90;99.90
56240;DHT22;42154;51.992;5.896;2023-04-24T00:41:34;10.80;99.90
56240;DHT22;42154;51.992;5.896;2023-04-24T00:44:00;10.90;99.90
56240;DHT22;42154;51.992;5.896;2023-04-24T00:46:26;10.80;99.90
56240;DHT22;42154;51.992;5.896;2023-04-24T00:48:52;10.80;99.90
56240;DHT22;42154;51.992;5.896;2023-04-24T00:51:18;10.80;99.90
56240;DHT22;42154;51.992;5.896;2023-04-24T00:53:45;10.80;99.90
56240;DHT22;42154;51.992;5.896;2023-04-24T00:56:11;10.80;99.90
56240;DHT22;42154;51.992;5.896;2023-04-24T00:58:37;10.80;99.90
56240;DHT22;42154;51.992;5.896;2023-04-24T01:01:03;10.80;99.90
56240;DHT22;42154;51.992;5.896;2023-04-24T01:03:33;10.80;99.90
56240;DHT22;42154;51.992;5.896;2023-04-24T01:05:59;10.80;99.90
56240;DHT22;42154;51.992;5.896;2023-04-24T01:08:26;10.80;99.90
56240;DHT22;42154;51.992;5.896;2023-04-24T01:10:53;10.80;99.90
56240;DHT22;42154;51.992;5.896;2023-04-24T01:13:20;10.80;99.90
56240;DHT22;42154;51.992;5.896;2023-04-24T01:15:46;10.80;99.90
56240;DHT22;42154;51.992;5.896;2023-04-24T01:18:13;10.80;99.90
56240;DHT22;42154;51.992;5.896;2023-04-24T01:20:40;10.80;99.90
56240;DHT22;42154;51.992;5.896;2023-04-24T01:23:07;10.70;99.90
56240;DHT22;42154;51.992;5.896;2023-04-24T01:25:33;10.80;99.90
56240;DHT22;42154;51.992;5.896;2023-04-24T01:27:59;10.80;99.90
56240;DHT22;42154;51.992;5.896;2023-04-24T01:30:26;10.80;99.90
56240;DHT22;42154;51.992;5.896;2023-04-24T01:32:52;10.80;99.90
56240;DHT22;42154;51.992;5.896;2023-04-24T01:35:19;10.80;99.90
56240;DHT22;42154;51.992;5.896;2023-04-24T01:37:45;10.70;99.90
56240;DHT22;42154;51.992;5.896;2023-04-24T01:40:11;10.70;99.90
56240;DHT22;42154;51.992;5.896;2023-04-24T01:42:37;10.70;99.90
56240;DHT22;42154;51.992;5.896;2023-04-24T01:45:04;10.70;99.90
56240;DHT22;42154;51.992;5.896;2023-04-24T01:47:33;10.70;99.90
56240;DHT22;42154;51.992;5.896;2023-04-24T01:49:59;10.70;99.90
56240;DHT22;42154;51.992;5.896;2023-04-24T01:52:25;10.60;99.90
56240;DHT22;42154;51.992;5.896;2023-04-24T01:54:52;10.60;99.90
56240;DHT22;42154;51.992;5.896;2023-04-24T01:57:18;10.60;99.90
56240;DHT22;42154;51.992;5.896;2023-04-24T01:59:44;10.60;99.90
56240;DHT22;42154;51.992;5.896;2023-04-24T02:02:09;10.60;99.90
56240;DHT22;42154;51.992;5.896;2023-04-24T02:04:35;10.60;99.90
56240;DHT22;42154;51.992;5.896;2023-04-24T02:07:01;10.50;99.90
56240;DHT22;42154;51.992;5.896;2023-04-24T02:09:27;10.60;99.90
56240;DHT22;42154;51.992;5.896;2023-04-24T02:11:52;10.60;99.90
56240;DHT22;42154;51.992;5.896;2023-04-24T02:14:18;10.70;99.90
56240;DHT22;42154;51.992;5.896;2023-04-24T02:16:44;10.70;99.90
56240;DHT22;42154;51.992;5.896;2023-04-24T02:19:10;10.70;99.90
56240;DHT22;42154;51.992;5.896;2023-04-24T02:21:36;10.70;99.90
56240;DHT22;42154;51.992;5.896;2023-04-24T02:24:02;10.70;99.90
56240;DHT22;42154;51.992;5.896;2023-04-24T02:26:27;10.70;99.90
56240;DHT22;42154;51.992;5.896;2023-04-24T02:28:53;10.70;99.90
56240;DHT22;42154;51.992;5.896;2023-04-24T02:31:20;10.80;99.90
56240;DHT22;42154;51.992;5.896;2023-04-24T02:33:47;10.70;99.90
56240;DHT22;42154;51.992;5.896;2023-04-24T02:36:13;10.70;99.90
56240;DHT22;42154;51.992;5.896;2023-04-24T02:38:39;10.70;99.90
56240;DHT22;42154;51.992;5.896;2023-04-24T02:41:05;10.70;99.90
56240;DHT22;42154;51.992;5.896;2023-04-24T02:43:32;10.70;99.90
56240;DHT22;42154;51.992;5.896;2023-04-24T02:45:58;10.70;99.90
56240;DHT22;42154;51.992;5.896;2023-04-24T02:48:24;10.70;99.90
56240;DHT22;42154;51.992;5.896;2023-04-24T02:50:50;10.70;99.90
56240;DHT22;42154;51.992;5.896;2023-04-24T02:53:16;10.60;99.90
56240;DHT22;42154;51.992;5.896;2023-04-24T02:55:42;10.70;99.90
56240;DHT22;42154;51.992;5.896;2023-04-24T02:58:08;10.60;99.90
56240;DHT22;42154;51.992;5.896;2023-04-24T03:00:34;10.60;99.90
56240;DHT22;42154;51.992;5.896;2023-04-24T03:03:00;10.70;99.90
56240;DHT22;42154;51.992;5.896;2023-04-24T03:05:25;10.70;99.90
56240;DHT22;42154;51.992;5.896;2023-04-24T03:07:52;10.70;99.90
56240;DHT22;42154;51.992;5.896;2023-04-24T03:10:20;10.60;99.90
56240;DHT22;42154;51.992;5.896;2023-04-24T03:12:48;10.60;99.90
56240;DHT22;42154;51.992;5.896;2023-04-24T03:15:15;10.60;99.90
56240;DHT22;42154;51.992;5.896;2023-04-24T03:17:41;10.60;99.90
56240;DHT22;42154;51.992;5.896;2023-04-24T03:20:07;10.60;99.90
56240;DHT22;42154;51.992;5.896;2023-04-24T03:22:34;10.60;99.90
56240;DHT22;42154;51.992;5.896;2023-04-24T03:25:03;10.60;99.90
56240;DHT22;42154;51.992;5.896;2023-04-24T03:27:29;10.60;99.90
56240;DHT22;42154;51.992;5.896;2023-04-24T03:30:00;10.60;99.90
56240;DHT22;42154;51.992;5.896;2023-04-24T03:32:35;10.60;99.90
56240;DHT22;42154;51.992;5.896;2023-04-24T03:35:02;10.60;99.90
56240;DHT22;42154;51.992;5.896;2023-04-24T03:37:28;10.60;99.90
56240;DHT22;42154;51.992;5.896;2023-04-24T03:40:17;10.60;99.90
56240;DHT22;42154;51.992;5.896;2023-04-24T03:42:43;10.60;99.90
56240;DHT22;42154;51.992;5.896;2023-04-24T03:45:09;10.60;99.90
56240;DHT22;42154;51.992;5.896;2023-04-24T03:47:38;10.60;99.90
56240;DHT22;42154;51.992;5.896;2023-04-24T03:50:05;10.60;99.90
56240;DHT22;42154;51.992;5.896;2023-04-24T03:52:32;10.50;99.90
56240;DHT22;42154;51.992;5.896;2023-04-24T03:54:58;10.60;99.90
56240;DHT22;42154;51.992;5.896;2023-04-24T03:57:25;10.50;99.90
56240;DHT22;42154;51.992;5.896;2023-04-24T04:00:02;10.50;99.90
56240;DHT22;42154;51.992;5.896;2023-04-24T04:02:40;10.50;99.90
56240;DHT22;42154;51.992;5.896;2023-04-24T04:05:07;10.50;99.90
56240;DHT22;42154;51.992;5.896;2023-04-24T04:07:34;10.50;99.90
56240;DHT22;42154;51.992;5.896;2023-04-24T04:10:00;10.50;99.90
56240;DHT22;42154;51.992;5.896;2023-04-24T04:12:25;10.50;99.90
56240;DHT22;42154;51.992;5.896;2023-04-24T04:14:52;10.50;99.90
56240;DHT22;42154;51.992;5.896;2023-04-24T04:17:18;10.50;99.90
56240;DHT22;42154;51.992;5.896;2023-04-24T04:19:44;10.50;99.90
56240;DHT22;42154;51.992;5.896;2023-04-24T04:22:10;10.50;99.90
56240;DHT22;42154;51.992;5.896;2023-04-24T04:24:44;10.40;99.90
56240;DHT22;42154;51.992;5.896;2023-04-24T04:27:11;10.40;99.90
56240;DHT22;42154;51.992;5.896;2023-04-24T04:30:04;10.30;99.90
56240;DHT22;42154;51.992;5.896;2023-04-24T04:32:36;10.30;99.90
56240;DHT22;42154;51.992;5.896;2023-04-24T04:35:03;10.30;99.90
56240;DHT22;42154;51.992;5.896;2023-04-24T04:37:34;10.20;99.90
56240;DHT22;42154;51.992;5.896;2023-04-24T04:40:26;10.20;99.90
56240;DHT22;42154;51.992;5.896;2023-04-24T04:42:59;10.20;99.90
56240;DHT22;42154;51.992;5.896;2023-04-24T04:45:28;10.20;99.90
56240;DHT22;42154;51.992;5.896;2023-04-24T04:48:24;10.20;99.90
56240;DHT22;42154;51.992;5.896;2023-04-24T04:50:51;10.10;99.90
56240;DHT22;42154;51.992;5.896;2023-04-24T04:53:17;10.20;99.90
56240;DHT22;42154;51.992;5.896;2023-04-24T04:55:43;10.20;99.90
56240;DHT22;42154;51.992;5.896;2023-04-24T04:58:19;10.20;99.90
56240;DHT22;42154;51.992;5.896;2023-04-24T05:00:47;10.20;99.90
56240;DHT22;42154;51.992;5.896;2023-04-24T05:03:23;10.10;99.90
56240;DHT22;42154;51.992;5.896;2023-04-24T05:05:57;10.10;99.90
56240;DHT22;42154;51.992;5.896;2023-04-24T05:08:23;10.10;99.90
56240;DHT22;42154;51.992;5.896;2023-04-24T05:10:49;10.10;99.90
56240;DHT22;42154;51.992;5.896;2023-04-24T05:13:15;10.10;99.90
56240;DHT22;42154;51.992;5.896;2023-04-24T05:15:40;10.20;99.90
56240;DHT22;42154;51.992;5.896;2023-04-24T05:18:06;10.20;99.90
56240;DHT22;42154;51.992;5.896;2023-04-24T05:20:33;10.20;99.90
56240;DHT22;42154;51.992;5.896;2023-04-24T05:22:58;10.20;99.90
56240;DHT22;42154;51.992;5.896;2023-04-24T05:25:26;10.20;99.90
56240;DHT22;42154;51.992;5.896;2023-04-24T05:27:56;10.20;99.90
56240;DHT22;42154;51.992;5.896;2023-04-24T05:30:22;10.20;99.90
56240;DHT22;42154;51.992;5.896;2023-04-24T05:32:49;10.20;99.90
56240;DHT22;42154;51.992;5.896;2023-04-24T05:35:15;10.20;99.90
56240;DHT22;42154;51.992;5.896;2023-04-24T05:37:41;10.20;99.90
56240;DHT22;42154;51.992;5.896;2023-04-24T05:40:08;10.20;99.90
56240;DHT22;42154;51.992;5.896;2023-04-24T05:42:34;10.30;99.90
56240;DHT22;42154;51.992;5.896;2023-04-24T05:45:00;10.30;99.90
56240;DHT22;42154;51.992;5.896;2023-04-24T05:47:26;10.30;99.90
56240;DHT22;42154;51.992;5.896;2023-04-24T05:49:52;10.30;99.90
56240;DHT22;42154;51.992;5.896;2023-04-24T05:52:19;10.40;99.90
56240;DHT22;42154;51.992;5.896;2023-04-24T05:54:47;10.40;99.90
56240;DHT22;42154;51.992;5.896;2023-04-24T05:57:18;10.40;99.90
56240;DHT22;42154;51.992;5.896;2023-04-24T06:00:04;10.40;99.90
56240;DHT22;42154;51.992;5.896;2023-04-24T06:02:39;10.50;99.90
56240;DHT22;42154;51.992;5.896;2023-04-24T06:05:07;10.50;99.90
56240;DHT22;42154;51.992;5.896;2023-04-24T06:07:33;10.50;99.90
56240;DHT22;42154;51.992;5.896;2023-04-24T06:10:03;10.50;99.90
56240;DHT22;42154;51.992;5.896;2023-04-24T06:12:36;10.50;99.90
56240;DHT22;42154;51.992;5.896;2023-04-24T06:15:07;10.50;99.90
56240;DHT22;42154;51.992;5.896;2023-04-24T06:17:53;10.50;99.90
56240;DHT22;42154;51.992;5.896;2023-04-24T06:20:20;10.50;99.90
56240;DHT22;42154;51.992;5.896;2023-04-24T06:22:45;10.50;99.90
56240;DHT22;42154;51.992;5.896;2023-04-24T06:25:11;10.50;99.90
56240;DHT22;42154;51.992;5.896;2023-04-24T06:27:37;10.50;99.90
56240;DHT22;42154;51.992;5.896;2023-04-24T06:30:03;10.60;99.90
56240;DHT22;42154;51.992;5.896;2023-04-24T06:32:29;10.60;99.90
56240;DHT22;42154;51.992;5.896;2023-04-24T06:34:56;10.60;99.90
56240;DHT22;42154;51.992;5.896;2023-04-24T06:37:22;10.70;99.90
56240;DHT22;42154;51.992;5.896;2023-04-24T06:39:47;10.80;99.90
56240;DHT22;42154;51.992;5.896;2023-04-24T06:42:13;10.80;99.90
56240;DHT22;42154;51.992;5.896;2023-04-24T06:44:42;10.80;99.90
56240;DHT22;42154;51.992;5.896;2023-04-24T06:47:11;10.90;99.90
56240;DHT22;42154;51.992;5.896;2023-04-24T06:49:39;10.90;99.90
56240;DHT22;42154;51.992;5.896;2023-04-24T06:52:05;10.90;99.90
56240;DHT22;42154;51.992;5.896;2023-04-24T06:54:32;10.90;99.90
56240;DHT22;42154;51.992;5.896;2023-04-24T06:56:58;10.90;99.90
56240;DHT22;42154;51.992;5.896;2023-04-24T06:59:26;10.90;99.90
56240;DHT22;42154;51.992;5.896;2023-04-24T07:01:52;10.90;99.90
56240;DHT22;42154;51.992;5.896;2023-04-24T07:04:18;10.90;99.90
56240;DHT22;42154;51.992;5.896;2023-04-24T07:06:47;11.00;99.90
56240;DHT22;42154;51.992;5.896;2023-04-24T07:09:13;11.00;99.90
56240;DHT22;42154;51.992;5.896;2023-04-24T07:11:39;11.00;99.90
56240;DHT22;42154;51.992;5.896;2023-04-24T07:14:06;10.90;99.90
56240;DHT22;42154;51.992;5.896;2023-04-24T07:16:32;10.90;99.90
56240;DHT22;42154;51.992;5.896;2023-04-24T07:18:58;10.80;99.90
56240;DHT22;42154;51.992;5.896;2023-04-24T07:21:24;10.80;99.90
56240;DHT22;42154;51.992;5.896;2023-04-24T07:23:51;10.80;99.90
56240;DHT22;42154;51.992;5.896;2023-04-24T07:26:16;10.80;99.90
56240;DHT22;42154;51.992;5.896;2023-04-24T07:28:42;10.70;99.90
56240;DHT22;42154;51.992;5.896;2023-04-24T07:31:08;10.70;99.90
56240;DHT22;42154;51.992;5.896;2023-04-24T07:33:34;10.60;99.90
56240;DHT22;42154;51.992;5.896;2023-04-24T07:36:01;10.60;99.90
56240;DHT22;42154;51.992;5.896;2023-04-24T07:38:29;10.50;99.90
56240;DHT22;42154;51.992;5.896;2023-04-24T07:40:55;10.50;99.90
56240;DHT22;42154;51.992;5.896;2023-04-24T07:43:21;10.50;99.90
56240;DHT22;42154;51.992;5.896;2023-04-24T07:45:47;10.40;99.90
56240;DHT22;42154;51.992;5.896;2023-04-24T07:48:13;10.40;99.90
56240;DHT22;42154;51.992;5.896;2023-04-24T07:50:42;10.30;99.90
56240;DHT22;42154;51.992;5.896;2023-04-24T07:53:07;10.20;99.90
56240;DHT22;42154;51.992;5.896;2023-04-24T07:55:33;10.20;99.90
56240;DHT22;42154;51.992;5.896;2023-04-24T07:57:59;10.20;99.90
56240;DHT22;42154;51.992;5.896;2023-04-24T08:00:25;10.10;99.90
56240;DHT22;42154;51.992;5.896;2023-04-24T08:02:50;10.00;99.90
56240;DHT22;42154;51.992;5.896;2023-04-24T08:05:16;10.00;99.90
56240;DHT22;42154;51.992;5.896;2023-04-24T08:07:42;10.00;99.90
56240;DHT22;42154;51.992;5.896;2023-04-24T08:10:10;9.90;99.90
56240;DHT22;42154;51.992;5.896;2023-04-24T08:12:37;9.80;99.90
56240;DHT22;42154;51.992;5.896;2023-04-24T08:15:03;9.80;99.90
56240;DHT22;42154;51.992;5.896;2023-04-24T08:17:29;9.80;99.90
56240;DHT22;42154;51.992;5.896;2023-04-24T08:19:54;9.80;99.90
56240;DHT22;42154;51.992;5.896;2023-04-24T08:22:27;9.80;99.90
56240;DHT22;42154;51.992;5.896;2023-04-24T08:24:53;9.80;99.90
56240;DHT22;42154;51.992;5.896;2023-04-24T08:27:19;9.70;99.90
56240;DHT22;42154;51.992;5.896;2023-04-24T08:29:44;9.70;99.90
56240;DHT22;42154;51.992;5.896;2023-04-24T08:32:10;9.70;99.90
56240;DHT22;42154;51.992;5.896;2023-04-24T08:34:36;9.70;99.90
56240;DHT22;42154;51.992;5.896;2023-04-24T08:37:02;9.70;99.90
56240;DHT22;42154;51.992;5.896;2023-04-24T08:39:28;9.60;99.90
56240;DHT22;42154;51.992;5.896;2023-04-24T08:41:55;9.70;99.90
56240;DHT22;42154;51.992;5.896;2023-04-24T08:44:21;9.60;99.90
56240;DHT22;42154;51.992;5.896;2023-04-24T08:46:48;9.60;99.90
56240;DHT22;42154;51.992;5.896;2023-04-24T08:49:14;9.70;99.90
56240;DHT22;42154;51.992;5.896;2023-04-24T08:51:44;9.70;99.90
56240;DHT22;42154;51.992;5.896;2023-04-24T08:54:11;9.70;99.90
56240;DHT22;42154;51.992;5.896;2023-04-24T08:56:38;9.70;99.90
56240;DHT22;42154;51.992;5.896;2023-04-24T08:59:06;9.70;99.90
56240;DHT22;42154;51.992;5.896;2023-04-24T09:01:33;9.70;99.90
56240;DHT22;42154;51.992;5.896;2023-04-24T09:04:02;9.70;99.90
56240;DHT22;42154;51.992;5.896;2023-04-24T09:06:30;9.80;99.90
56240;DHT22;42154;51.992;5.896;2023-04-24T09:09:02;9.80;99.90
56240;DHT22;42154;51.992;5.896;2023-04-24T09:11:30;9.80;99.90
56240;DHT22;42154;51.992;5.896;2023-04-24T09:13:56;9.80;99.90
56240;DHT22;42154;51.992;5.896;2023-04-24T09:16:25;9.80;99.90
56240;DHT22;42154;51.992;5.896;2023-04-24T09:18:51;9.80;99.90
56240;DHT22;42154;51.992;5.896;2023-04-24T09:21:18;9.80;99.90
56240;DHT22;42154;51.992;5.896;2023-04-24T09:23:45;9.80;99.90
56240;DHT22;42154;51.992;5.896;2023-04-24T09:26:11;9.80;99.90
56240;DHT22;42154;51.992;5.896;2023-04-24T09:28:40;9.80;99.90
56240;DHT22;42154;51.992;5.896;2023-04-24T09:31:13;9.80;99.90
56240;DHT22;42154;51.992;5.896;2023-04-24T09:33:40;9.90;99.90
56240;DHT22;42154;51.992;5.896;2023-04-24T09:36:08;9.90;99.90
56240;DHT22;42154;51.992;5.896;2023-04-24T09:38:35;10.00;99.90
56240;DHT22;42154;51.992;5.896;2023-04-24T09:41:04;10.00;99.90
56240;DHT22;42154;51.992;5.896;2023-04-24T09:43:30;10.10;99.90
56240;DHT22;42154;51.992;5.896;2023-04-24T09:45:58;10.20;99.90
56240;DHT22;42154;51.992;5.896;2023-04-24T09:48:35;10.20;99.90
56240;DHT22;42154;51.992;5.896;2023-04-24T09:51:03;10.30;99.90
56240;DHT22;42154;51.992;5.896;2023-04-24T09:53:30;10.30;99.90
56240;DHT22;42154;51.992;5.896;2023-04-24T09:56:11;10.40;99.90
56240;DHT22;42154;51.992;5.896;2023-04-24T09:58:38;10.40;99.90
56240;DHT22;42154;51.992;5.896;2023-04-24T10:01:05;10.40;99.90
56240;DHT22;42154;51.992;5.896;2023-04-24T10:03:31;10.50;99.90
56240;DHT22;42154;51.992;5.896;2023-04-24T10:06:01;10.40;99.90
56240;DHT22;42154;51.992;5.896;2023-04-24T10:08:34;10.60;99.90
56240;DHT22;42154;51.992;5.896;2023-04-24T10:11:00;10.70;99.90
56240;DHT22;42154;51.992;5.896;2023-04-24T10:13:26;10.70;99.90
56240;DHT22;42154;51.992;5.896;2023-04-24T10:15:53;10.80;99.90
56240;DHT22;42154;51.992;5.896;2023-04-24T10:18:20;10.90;99.90
56240;DHT22;42154;51.992;5.896;2023-04-24T10:20:47;11.10;99.90
56240;DHT22;42154;51.992;5.896;2023-04-24T10:23:13;11.20;99.90
56240;DHT22;42154;51.992;5.896;2023-04-24T10:25:39;11.50;99.90
56240;DHT22;42154;51.992;5.896;2023-04-24T10:28:05;11.60;99.90
56240;DHT22;42154;51.992;5.896;2023-04-24T10:30:33;11.80;99.90
56240;DHT22;42154;51.992;5.896;2023-04-24T10:33:06;11.90;99.90
56240;DHT22;42154;51.992;5.896;2023-04-24T10:35:40;12.00;99.90
56240;DHT22;42154;51.992;5.896;2023-04-24T10:38:11;11.90;99.90
56240;DHT22;42154;51.992;5.896;2023-04-24T10:40:37;11.80;99.90
56240;DHT22;42154;51.992;5.896;2023-04-24T10:43:04;11.70;99.90
56240;DHT22;42154;51.992;5.896;2023-04-24T10:45:37;11.60;99.90
56240;DHT22;42154;51.992;5.896;2023-04-24T10:48:07;11.50;99.90
56240;DHT22;42154;51.992;5.896;2023-04-24T10:50:52;11.40;99.90
56240;DHT22;42154;51.992;5.896;2023-04-24T10:53:23;11.30;99.90
56240;DHT22;42154;51.992;5.896;2023-04-24T10:58:23;11.20;99.90
56240;DHT22;42154;51.992;5.896;2023-04-24T11:00:59;11.30;99.90
56240;DHT22;42154;51.992;5.896;2023-04-24T11:03:26;11.40;99.90
56240;DHT22;42154;51.992;5.896;2023-04-24T11:08:28;11.60;99.90
56240;DHT22;42154;51.992;5.896;2023-04-24T11:11:11;11.60;99.90
56240;DHT22;42154;51.992;5.896;2023-04-24T11:16:36;11.30;99.90
56240;DHT22;42154;51.992;5.896;2023-04-24T11:19:06;11.10;99.90
56240;DHT22;42154;51.992;5.896;2023-04-24T11:21:48;11.00;99.90
56240;DHT22;42154;51.992;5.896;2023-04-24T11:24:25;11.20;99.90
56240;DHT22;42154;51.992;5.896;2023-04-24T11:26:55;11.40;99.90
56240;DHT22;42154;51.992;5.896;2023-04-24T11:29:22;11.50;99.90
56240;DHT22;42154;51.992;5.896;2023-04-24T11:31:49;11.60;99.90
56240;DHT22;42154;51.992;5.896;2023-04-24T11:34:17;11.60;99.90
56240;DHT22;42154;51.992;5.896;2023-04-24T11:36:46;11.50;99.90
56240;DHT22;42154;51.992;5.896;2023-04-24T11:39:13;11.50;99.90
56240;DHT22;42154;51.992;5.896;2023-04-24T11:41:39;11.60;99.90
56240;DHT22;42154;51.992;5.896;2023-04-24T11:44:09;11.70;99.90
56240;DHT22;42154;51.992;5.896;2023-04-24T11:46:34;11.70;99.90
56240;DHT22;42154;51.992;5.896;2023-04-24T11:49:00;11.80;99.90
56240;DHT22;42154;51.992;5.896;2023-04-24T11:51:27;11.80;99.90
56240;DHT22;42154;51.992;5.896;2023-04-24T11:53:54;11.80;99.90
56240;DHT22;42154;51.992;5.896;2023-04-24T11:56:24;11.70;99.90
56240;DHT22;42154;51.992;5.896;2023-04-24T11:58:54;11.60;99.90
56240;DHT22;42154;51.992;5.896;2023-04-24T12:01:20;11.60;99.90
56240;DHT22;42154;51.992;5.896;2023-04-24T12:03:50;11.40;99.90
56240;DHT22;42154;51.992;5.896;2023-04-24T12:06:17;11.40;99.90
56240;DHT22;42154;51.992;5.896;2023-04-24T12:08:46;11.30;99.90
56240;DHT22;42154;51.992;5.896;2023-04-24T12:11:15;11.20;99.90
56240;DHT22;42154;51.992;5.896;2023-04-24T12:13:43;11.00;99.90
56240;DHT22;42154;51.992;5.896;2023-04-24T12:16:09;10.90;99.90
56240;DHT22;42154;51.992;5.896;2023-04-24T12:18:40;10.90;99.90
56240;DHT22;42154;51.992;5.896;2023-04-24T12:21:19;11.00;99.90
56240;DHT22;42154;51.992;5.896;2023-04-24T12:23:45;11.20;99.90
56240;DHT22;42154;51.992;5.896;2023-04-24T12:26:18;11.30;99.90
56240;DHT22;42154;51.992;5.896;2023-04-24T12:28:47;11.50;99.90
56240;DHT22;42154;51.992;5.896;2023-04-24T12:31:13;11.70;99.90
56240;DHT22;42154;51.992;5.896;2023-04-24T12:33:39;11.70;99.90
56240;DHT22;42154;51.992;5.896;2023-04-24T12:36:05;11.80;99.90
56240;DHT22;42154;51.992;5.896;2023-04-24T12:38:31;12.00;99.90
56240;DHT22;42154;51.992;5.896;2023-04-24T12:41:08;12.10;99.90
56240;DHT22;42154;51.992;5.896;2023-04-24T12:43:34;12.10;99.90
56240;DHT22;42154;51.992;5.896;2023-04-24T12:46:00;12.20;99.90
56240;DHT22;42154;51.992;5.896;2023-04-24T12:48:27;12.30;99.90
56240;DHT22;42154;51.992;5.896;2023-04-24T12:50:53;12.30;99.90
56240;DHT22;42154;51.992;5.896;2023-04-24T12:53:19;12.20;99.90
56240;DHT22;42154;51.992;5.896;2023-04-24T12:55:45;12.20;99.90
56240;DHT22;42154;51.992;5.896;2023-04-24T12:58:12;12.10;99.90
56240;DHT22;42154;51.992;5.896;2023-04-24T13:00:38;12.10;99.90
56240;DHT22;42154;51.992;5.896;2023-04-24T13:03:04;12.00;99.90
56240;DHT22;42154;51.992;5.896;2023-04-24T13:05:30;12.10;99.90
56240;DHT22;42154;51.992;5.896;2023-04-24T13:07:57;12.30;99.90
56240;DHT22;42154;51.992;5.896;2023-04-24T13:10:23;12.50;99.90
56240;DHT22;42154;51.992;5.896;2023-04-24T13:12:49;12.50;99.90
56240;DHT22;42154;51.992;5.896;2023-04-24T13:15:14;12.60;99.90
56240;DHT22;42154;51.992;5.896;2023-04-24T13:17:40;12.70;99.90
56240;DHT22;42154;51.992;5.896;2023-04-24T13:20:06;12.80;99.90
56240;DHT22;42154;51.992;5.896;2023-04-24T13:22:32;12.80;99.90
56240;DHT22;42154;51.992;5.896;2023-04-24T13:24:58;12.60;99.90
56240;DHT22;42154;51.992;5.896;2023-04-24T13:27:25;12.50;99.90
56240;DHT22;42154;51.992;5.896;2023-04-24T13:29:50;12.30;99.90
56240;DHT22;42154;51.992;5.896;2023-04-24T13:32:17;12.10;99.90
56240;DHT22;42154;51.992;5.896;2023-04-24T13:34:43;11.90;99.90
56240;DHT22;42154;51.992;5.896;2023-04-24T13:37:08;11.80;99.90
56240;DHT22;42154;51.992;5.896;2023-04-24T13:39:34;11.70;99.90
56240;DHT22;42154;51.992;5.896;2023-04-24T13:42:00;11.80;99.90
56240;DHT22;42154;51.992;5.896;2023-04-24T13:44:26;11.80;99.90
56240;DHT22;42154;51.992;5.896;2023-04-24T13:46:54;11.70;99.90
56240;DHT22;42154;51.992;5.896;2023-04-24T13:49:22;11.70;99.90
56240;DHT22;42154;51.992;5.896;2023-04-24T13:51:51;11.70;99.90
56240;DHT22;42154;51.992;5.896;2023-04-24T13:54:17;11.70;99.90
56240;DHT22;42154;51.992;5.896;2023-04-24T13:56:43;11.70;99.90
56240;DHT22;42154;51.992;5.896;2023-04-24T13:59:09;11.60;99.90
56240;DHT22;42154;51.992;5.896;2023-04-24T14:01:35;11.40;99.90
56240;DHT22;42154;51.992;5.896;2023-04-24T14:04:01;11.40;99.90
56240;DHT22;42154;51.992;5.896;2023-04-24T14:06:27;11.60;99.90
56240;DHT22;42154;51.992;5.896;2023-04-24T14:08:53;11.80;99.90
56240;DHT22;42154;51.992;5.896;2023-04-24T14:11:19;12.00;99.90
56240;DHT22;42154;51.992;5.896;2023-04-24T14:13:46;12.10;99.90
56240;DHT22;42154;51.992;5.896;2023-04-24T14:16:11;12.20;99.90
56240;DHT22;42154;51.992;5.896;2023-04-24T14:18:37;12.30;99.90
56240;DHT22;42154;51.992;5.896;2023-04-24T14:21:04;12.30;99.90
56240;DHT22;42154;51.992;5.896;2023-04-24T14:23:29;12.30;99.90
56240;DHT22;42154;51.992;5.896;2023-04-24T14:25:56;12.40;99.90
56240;DHT22;42154;51.992;5.896;2023-04-24T14:28:22;12.50;99.90
56240;DHT22;42154;51.992;5.896;2023-04-24T14:30:48;12.60;99.90
56240;DHT22;42154;51.992;5.896;2023-04-24T14:33:14;12.70;99.90
56240;DHT22;42154;51.992;5.896;2023-04-24T14:35:41;12.70;99.90
56240;DHT22;42154;51.992;5.896;2023-04-24T14:38:08;12.60;99.90
56240;DHT22;42154;51.992;5.896;2023-04-24T14:40:34;12.40;99.90
56240;DHT22;42154;51.992;5.896;2023-04-24T14:43:00;12.30;99.90
56240;DHT22;42154;51.992;5.896;2023-04-24T14:45:26;12.20;99.90
56240;DHT22;42154;51.992;5.896;2023-04-24T14:47:53;12.10;99.90
56240;DHT22;42154;51.992;5.896;2023-04-24T14:50:19;12.00;99.90
56240;DHT22;42154;51.992;5.896;2023-04-24T14:52:51;11.90;99.90
56240;DHT22;42154;51.992;5.896;2023-04-24T14:59:11;12.00;99.90
56240;DHT22;42154;51.992;5.896;2023-04-24T15:01:37;12.10;99.90
56240;DHT22;42154;51.992;5.896;2023-04-24T15:04:02;12.10;99.90
56240;DHT22;42154;51.992;5.896;2023-04-24T15:06:29;12.10;99.90
56240;DHT22;42154;51.992;5.896;2023-04-24T15:08:56;12.10;99.90
56240;DHT22;42154;51.992;5.896;2023-04-24T15:11:22;12.20;99.90
56240;DHT22;42154;51.992;5.896;2023-04-24T15:13:48;12.20;99.90
56240;DHT22;42154;51.992;5.896;2023-04-24T15:16:14;12.20;99.90
56240;DHT22;42154;51.992;5.896;2023-04-24T15:18:39;12.20;99.90
56240;DHT22;42154;51.992;5.896;2023-04-24T15:21:05;12.20;99.90
56240;DHT22;42154;51.992;5.896;2023-04-24T15:23:31;12.20;99.90
56240;DHT22;42154;51.992;5.896;2023-04-24T15:25:57;12.30;99.90
56240;DHT22;42154;51.992;5.896;2023-04-24T15:28:24;12.40;99.90
56240;DHT22;42154;51.992;5.896;2023-04-24T15:30:50;12.40;99.90
56240;DHT22;42154;51.992;5.896;2023-04-24T15:33:16;12.30;99.90
56240;DHT22;42154;51.992;5.896;2023-04-24T15:35:41;12.30;99.90
56240;DHT22;42154;51.992;5.896;2023-04-24T15:38:07;12.40;99.90
56240;DHT22;42154;51.992;5.896;2023-04-24T15:40:33;12.40;99.90
56240;DHT22;42154;51.992;5.896;2023-04-24T15:42:59;12.30;99.90
56240;DHT22;42154;51.992;5.896;2023-04-24T15:45:25;12.30;99.90